Time;durP1;ratioP1;P1;durP2;ratioP2;P2;SDS_P1;SDS_P2;PMS_P1;PMS_P2;Temp;Humidity;BMP_temperature;BMP_pressure;BME280_temperature;BME280_humidity;BME280_pressure;Samples;Min_cycle;Max_cycle;Signal;HPM_P1;HPM_P2
2021/06/21 00:00:16;;;;;;;13.43;4.80;;;23.00;99.90;;;22.63;66.43;99942.41;5087464;28;20028;-59
2021/06/21 00:02:43;;;;;;;8.85;3.45;;;23.10;99.90;;;22.63;66.50;99940.53;5087527;28;20813;-50
2021/06/21 00:05:12;;;;;;;8.02;3.80;;;23.10;99.90;;;22.64;66.53;99942.16;5087383;28;20051;-57
2021/06/21 00:07:38;;;;;;;10.02;4.10;;;23.10;99.90;;;22.54;66.88;99941.94;5069132;28;20028;-53
2021/06/21 00:10:07;;;;;;;9.35;4.10;;;23.10;99.90;;;22.46;67.49;99937.81;5087646;28;20043;-54
2021/06/21 00:12:34;;;;;;;9.90;3.45;;;23.00;99.90;;;22.38;68.32;99942.69;5087543;28;20036;-56
2021/06/21 00:15:01;;;;;;;13.07;4.53;;;22.90;99.90;;;22.32;68.76;99939.09;5087271;28;20046;-57
2021/06/21 00:17:27;;;;;;;7.97;4.18;;;22.80;99.90;;;22.29;68.97;99938.75;5069092;28;20580;-59
2021/06/21 00:19:53;;;;;;;10.68;5.10;;;22.80;99.90;;;22.22;70.13;99944.19;5087222;28;20313;-58
2021/06/21 00:22:19;;;;;;;11.48;5.68;;;22.80;99.90;;;22.11;71.55;99940.53;5087347;28;20270;-53
2021/06/21 00:24:45;;;;;;;6.53;5.13;;;22.70;99.90;;;22.06;71.49;99939.63;5087131;28;20044;-52
2021/06/21 00:27:12;;;;;;;9.02;5.07;;;22.60;99.90;;;22.01;71.22;99934.16;5087427;28;20127;-57
2021/06/21 00:29:39;;;;;;;5.45;4.15;;;22.60;99.90;;;22.02;70.63;99930.50;5087755;28;20028;-53
2021/06/21 00:32:06;;;;;;;6.50;4.78;;;22.50;99.90;;;22.04;69.84;99941.69;5068749;28;20050;-57
2021/06/21 00:34:32;;;;;;;8.48;4.53;;;22.60;99.90;;;22.09;69.49;99932.00;5087034;28;20358;-58
2021/06/21 00:36:58;;;;;;;9.93;4.03;;;22.60;99.90;;;22.10;69.54;99936.28;5089721;28;20172;-56
2021/06/21 00:39:24;;;;;;;7.63;4.03;;;22.60;99.90;;;22.10;69.21;99925.66;5091092;28;20020;-56
2021/06/21 00:41:50;;;;;;;8.38;3.67;;;22.60;99.90;;;22.15;67.79;99928.44;5091188;28;20051;-56
2021/06/21 00:44:16;;;;;;;10.05;3.83;;;22.60;99.90;;;22.28;67.22;99931.84;5091355;28;20328;-54
2021/06/21 00:46:42;;;;;;;11.23;3.95;;;22.70;99.90;;;22.32;66.66;99938.28;5090951;28;20051;-58
2021/06/21 00:49:08;;;;;;;9.73;4.30;;;22.80;99.90;;;22.29;67.27;99938.75;5073102;28;20452;-53
2021/06/21 00:51:35;;;;;;;10.05;4.13;;;22.80;99.90;;;22.22;68.00;99932.78;5090949;28;20035;-57
2021/06/21 00:54:02;;;;;;;10.65;4.25;;;22.70;99.90;;;22.10;68.43;99935.47;5090832;28;20554;-57
2021/06/21 00:56:28;;;;;;;5.28;4.03;;;22.60;99.90;;;22.11;68.30;99935.22;5091002;28;20085;-56
2021/06/21 00:59:01;;;;;;;15.73;4.95;;;22.60;99.90;;;22.12;68.32;99930.75;5090776;28;20491;-55
2021/06/21 01:01:28;;;;;;;9.27;4.22;;;22.60;99.90;;;22.10;68.54;99936.28;5090876;28;20047;-54
2021/06/21 01:03:55;;;;;;;8.43;3.60;;;22.70;99.90;;;22.06;68.66;99931.66;5090852;28;20451;-59
2021/06/21 01:06:21;;;;;;;7.68;3.40;;;22.60;99.90;;;22.11;67.83;99932.59;5091250;28;20036;-57
2021/06/21 01:08:48;;;;;;;8.27;3.38;;;22.60;99.90;;;22.21;66.30;99928.53;5090702;28;20044;-59
2021/06/21 01:11:16;;;;;;;11.20;3.25;;;22.70;99.90;;;22.26;66.35;99933.91;5072446;28;20074;-55
2021/06/21 01:14:03;;;;;;;11.82;3.58;;;22.70;99.90;;;22.29;66.30;99933.47;5090451;28;20097;-55
2021/06/21 01:16:47;;;;;;;6.80;3.83;;;22.70;99.90;;;22.27;66.26;99935.53;5090590;28;20533;-58
2021/06/21 01:19:40;;;;;;;13.02;4.60;;;22.80;99.90;;;22.24;66.13;99933.34;5090829;28;20043;-52
2021/06/21 01:22:40;;;;;;;4.82;3.08;;;22.80;99.90;;;22.22;66.21;99938.06;5090302;28;20384;-57
2021/06/21 01:25:34;;;;;;;7.50;3.42;;;22.70;99.90;;;22.15;66.63;99939.03;5090413;28;20044;-56
2021/06/21 01:28:25;;;;;;;14.25;3.45;;;22.70;99.90;;;22.06;67.44;99951.03;5090494;28;20093;-55
2021/06/21 01:31:15;;;;;;;6.63;4.00;;;22.60;99.90;;;22.00;68.72;99953.78;5074842;28;20036;-56
2021/06/21 01:33:43;;;;;;;7.32;3.25;;;22.50;99.90;;;21.89;68.88;99947.44;5090224;28;20480;-53
2021/06/21 01:36:13;;;;;;;15.27;4.18;;;22.40;99.90;;;21.81;69.36;99937.97;5090188;28;20391;-57
2021/06/21 01:38:52;;;;;;;11.27;4.05;;;22.40;99.90;;;21.78;69.16;99941.09;5090197;28;20036;-55
2021/06/21 01:41:28;;;;;;;7.82;3.75;;;22.30;99.90;;;21.75;69.31;99938.88;5090272;28;20120;-59
2021/06/21 01:43:56;;;;;;;9.25;3.90;;;22.30;99.90;;;21.74;69.45;99931.19;5072055;28;20083;-58
2021/06/21 01:46:29;;;;;;;12.25;4.22;;;22.20;99.90;;;21.64;70.09;99915.84;5089832;28;20702;-56
2021/06/21 01:49:02;;;;;;;10.70;4.75;;;22.20;99.90;;;21.62;70.64;99922.41;5089347;28;20032;-50
2021/06/21 01:51:31;;;;;;;8.70;4.45;;;22.10;99.90;;;21.57;70.27;99920.47;5089913;28;20032;-53
2021/06/21 01:54:01;;;;;;;17.30;4.50;;;22.10;99.90;;;21.58;69.74;99923.91;5071857;28;20491;-59
2021/06/21 01:56:46;;;;;;;7.22;3.75;;;22.10;99.90;;;21.62;69.34;99917.13;5071612;28;20085;-55
2021/06/21 01:59:15;;;;;;;14.23;3.78;;;22.10;99.90;;;21.62;69.13;99917.94;5054951;28;20069;-57
2021/06/21 02:01:44;;;;;;;9.73;4.38;;;22.10;99.90;;;21.63;69.00;99926.69;5071156;28;20047;-59
2021/06/21 02:04:12;;;;;;;8.90;4.03;;;22.10;99.90;;;21.60;69.70;99925.31;5071390;28;20038;-60
2021/06/21 02:06:39;;;;;;;10.30;4.53;;;22.10;99.90;;;21.52;70.47;99929.09;5071335;28;20556;-56
2021/06/21 02:09:08;;;;;;;7.68;4.90;;;22.00;99.90;;;21.40;71.47;99930.91;5089586;28;20036;-56
2021/06/21 02:11:35;;;;;;;10.55;4.85;;;22.00;99.90;;;21.30;72.07;99941.25;5071208;28;20503;-56
2021/06/21 02:14:04;;;;;;;8.00;4.32;;;21.90;99.90;;;21.22;73.06;99933.66;5089451;28;20024;-59
2021/06/21 02:16:31;;;;;;;15.13;4.72;;;21.80;99.90;;;21.25;72.25;99938.50;5089463;28;20123;-54
2021/06/21 02:18:57;;;;;;;10.50;4.65;;;21.80;99.90;;;21.27;72.52;99931.09;5071307;28;20047;-56
2021/06/21 02:21:24;;;;;;;10.13;4.90;;;21.80;99.90;;;21.27;72.84;99941.69;5089574;28;20612;-53
2021/06/21 02:23:52;;;;;;;12.02;5.28;;;21.80;99.90;;;21.25;73.21;99943.81;5070887;28;20028;-49
2021/06/21 02:26:26;;;;;;;9.55;4.60;;;21.80;99.90;;;21.24;73.08;99944.03;5089101;28;20380;-59
2021/06/21 02:28:59;;;;;;;11.45;4.60;;;21.80;99.90;;;21.24;72.30;99947.47;5070728;28;20032;-56
2021/06/21 02:31:25;;;;;;;7.40;4.43;;;21.70;99.90;;;21.23;71.66;99942.41;5071460;28;20055;-58
2021/06/21 02:33:51;;;;;;;10.50;3.72;;;21.70;99.90;;;21.26;70.75;99949.91;5089171;28;20119;-54
2021/06/21 02:36:17;;;;;;;9.90;3.60;;;21.70;99.90;;;21.30;70.09;99946.56;5089110;28;20122;-49
2021/06/21 02:38:43;;;;;;;8.45;3.38;;;21.70;99.90;;;21.35;69.87;99949.34;5088908;28;20112;-59
2021/06/21 02:43:43;;;;;;;12.98;4.10;;;21.80;99.90;;;21.31;70.49;99952.66;4812940;22;20499;-60
2021/06/21 02:46:09;;;;;;;11.30;4.50;;;21.80;99.90;;;21.23;70.88;99947.72;5025650;28;20190;-60
2021/06/21 02:48:35;;;;;;;11.32;3.78;;;21.80;99.90;;;21.19;70.59;99944.69;5025740;28;20034;-56
2021/06/21 02:51:04;;;;;;;16.88;4.20;;;21.70;99.90;;;21.16;70.75;99947.78;5025668;28;20484;-56
2021/06/21 02:54:01;;;;;;;14.85;3.95;;;21.70;99.90;;;21.20;70.78;99946.28;5008678;28;20113;-57
2021/06/21 02:57:13;;;;;;;10.75;3.92;;;21.70;99.90;;;21.27;69.86;99946.22;5008132;28;20408;-53
2021/06/21 02:59:41;;;;;;;8.90;3.40;;;21.70;99.90;;;21.28;69.54;99943.31;5024599;28;20034;-58
2021/06/21 03:02:10;;;;;;;7.22;3.42;;;21.80;99.90;;;21.26;69.80;99942.78;5025693;28;20428;-62
2021/06/21 03:04:40;;;;;;;12.98;4.15;;;21.70;99.90;;;21.24;70.28;99942.19;5008103;28;20026;-57
2021/06/21 03:07:11;;;;;;;12.13;4.32;;;21.70;99.90;;;21.20;70.76;99938.34;4992871;28;20556;-57
2021/06/21 03:09:42;;;;;;;7.40;3.58;;;21.70;99.90;;;21.15;70.90;99946.16;5025455;28;20033;-54
2021/06/21 03:12:09;;;;;;;11.07;4.03;;;21.70;99.90;;;21.09;71.34;99945.22;5025618;28;20081;-58
2021/06/21 03:14:36;;;;;;;14.88;4.63;;;21.60;99.90;;;21.05;71.43;99948.53;5007711;28;20498;-58
2021/06/21 03:17:06;;;;;;;8.13;4.53;;;21.50;99.90;;;21.04;71.52;99946.91;5025670;28;20333;-63
2021/06/21 03:19:33;;;;;;;11.95;4.65;;;21.60;99.90;;;21.03;72.00;99953.25;5092340;28;20040;-55
2021/06/21 03:21:59;;;;;;;9.05;5.00;;;21.50;99.90;;;21.01;72.21;99952.66;5025573;28;20033;-54
2021/06/21 03:24:26;;;;;;;14.80;4.72;;;21.50;99.90;;;20.98;73.58;99953.13;5025060;28;20022;-62
2021/06/21 03:26:53;;;;;;;14.73;5.28;;;21.50;99.90;;;20.92;73.47;99938.94;5024933;28;20486;-55
2021/06/21 03:29:21;;;;;;;6.78;3.72;;;21.40;99.90;;;20.91;73.03;99947.09;5025152;28;20121;-52
2021/06/21 03:31:50;;;;;;;10.48;4.60;;;21.40;99.90;;;20.91;73.25;99936.50;5093367;28;20037;-52
2021/06/21 03:34:22;;;;;;;11.13;4.38;;;21.40;99.90;;;20.92;73.08;99924.88;5024747;28;20030;-56
2021/06/21 03:36:48;;;;;;;10.63;4.00;;;21.50;99.90;;;20.93;72.48;99935.25;5025044;28;20037;-57
2021/06/21 03:39:14;;;;;;;7.43;3.28;;;21.40;99.90;;;20.93;72.02;99932.59;5025178;28;20126;-57
2021/06/21 03:41:40;;;;;;;7.88;3.22;;;21.40;99.90;;;20.93;72.11;99934.44;5025099;28;20081;-57
2021/06/21 03:44:06;;;;;;;12.65;4.47;;;21.40;99.90;;;20.95;71.95;99932.38;5024650;28;20029;-54
2021/06/21 03:46:32;;;;;;;15.95;3.67;;;21.40;99.90;;;20.98;71.95;99939.88;5024668;28;20102;-54
2021/06/21 03:48:59;;;;;;;8.90;3.72;;;21.50;99.90;;;21.01;71.60;99942.88;5024393;28;20044;-52
2021/06/21 03:51:25;;;;;;;13.80;4.32;;;21.50;99.90;;;21.02;71.33;99951.63;5092626;28;20038;-60
2021/06/21 03:53:51;;;;;;;9.90;3.85;;;21.50;99.90;;;21.10;71.22;99948.66;5024896;28;20034;-57
2021/06/21 03:56:18;;;;;;;16.60;4.63;;;21.60;99.90;;;21.24;71.04;99950.13;5024542;28;20034;-50
2021/06/21 03:58:48;;;;;;;16.42;3.83;;;21.70;99.90;;;21.33;70.91;99946.09;5024855;28;20554;-56
2021/06/21 04:01:14;;;;;;;15.55;3.90;;;21.80;99.90;;;21.48;70.15;99949.13;5024602;28;20403;-55
2021/06/21 04:03:40;;;;;;;10.93;4.13;;;22.00;99.90;;;21.59;70.40;99950.19;5024508;28;20169;-54
2021/06/21 04:06:06;;;;;;;10.00;4.47;;;22.10;99.90;;;21.65;70.33;99949.28;5092541;28;20067;-63
2021/06/21 04:08:32;;;;;;;10.65;4.10;;;22.20;99.90;;;21.74;70.58;99947.09;5024577;28;20057;-54
2021/06/21 04:10:58;;;;;;;14.18;4.70;;;22.40;99.90;;;21.89;70.17;99943.97;5024087;28;20078;-55
2021/06/21 04:13:26;;;;;;;8.52;4.28;;;22.50;99.90;;;22.25;69.09;99953.53;5024695;28;20105;-56
2021/06/21 04:15:52;;;;;;;10.25;4.28;;;22.90;99.90;;;22.53;68.50;99958.91;5024054;28;20381;-53
2021/06/21 04:18:18;;;;;;;12.57;4.50;;;23.30;99.90;;;22.44;69.17;99955.81;5024635;28;20180;-58
2021/06/21 04:20:46;;;;;;;8.60;4.05;;;23.40;99.90;;;22.76;67.66;99956.19;5024299;28;20037;-59
2021/06/21 04:23:13;;;;;;;6.63;4.03;;;23.50;99.90;;;22.60;67.16;99956.94;5024679;28;20052;-55
2021/06/21 04:25:39;;;;;;;9.02;4.15;;;23.50;99.90;;;22.78;66.49;99955.94;5024299;28;20162;-57
2021/06/21 04:28:07;;;;;;;10.25;3.40;;;23.70;99.90;;;23.02;65.38;99956.69;5024295;28;20069;-59
2021/06/21 04:30:33;;;;;;;11.68;3.70;;;23.90;99.90;;;;;;5006907;28;20096;-58
2021/06/21 04:33:00;;;;;;;13.07;4.47;;;24.20;99.90;;;23.47;64.12;99960.13;5092063;28;20449;-58
2021/06/21 04:35:27;;;;;;;9.88;3.88;;;24.50;99.90;;;23.84;63.16;99962.31;5024103;28;20030;-54
2021/06/21 04:37:55;;;;;;;8.88;4.35;;;24.90;99.90;;;23.95;61.67;99957.97;5092165;28;20045;-56
2021/06/21 04:40:28;;;;;;;9.27;3.70;;;25.00;99.40;;;23.80;61.87;99956.69;5024019;28;20116;-54
2021/06/21 04:42:55;;;;;;;13.50;3.30;;;25.00;99.30;;;24.19;60.85;99948.72;5023777;28;20057;-53
2021/06/21 04:45:21;;;;;;;9.75;3.58;;;25.20;98.70;;;24.40;60.38;99949.81;5024398;28;20078;-52
2021/06/21 04:47:47;;;;;;;9.15;3.65;;;25.60;98.00;;;24.78;59.68;99951.59;5023725;28;20414;-58
2021/06/21 04:50:18;;;;;;;10.85;3.25;;;26.10;97.00;;;25.28;58.05;99939.84;5024061;28;20364;-52
2021/06/21 04:52:46;;;;;;;8.85;3.05;;;26.70;95.50;;;25.57;57.11;99942.97;5091974;28;20567;-56
2021/06/21 04:55:15;;;;;;;10.95;3.75;;;26.90;94.40;;;25.98;55.82;99936.09;5023972;28;20147;-54
2021/06/21 04:57:43;;;;;;;17.63;4.45;;;27.30;93.50;;;26.36;55.02;99937.66;5023864;28;20034;-49
2021/06/21 05:00:16;;;;;;;7.60;2.97;;;27.80;92.50;;;26.43;55.09;99938.22;5024355;28;20116;-55
2021/06/21 05:02:42;;;;;;;9.63;3.40;;;28.00;91.60;;;26.59;54.99;99934.50;5024039;28;20094;-57
2021/06/21 05:05:10;;;;;;;6.45;3.90;;;28.30;90.70;;;26.50;55.54;99929.94;5023757;28;20034;-55
2021/06/21 05:07:37;;;;;;;11.65;3.85;;;28.30;91.20;;;26.82;55.21;99932.44;5023797;28;20026;-54
2021/06/21 05:10:06;;;;;;;8.98;4.07;;;28.60;90.50;;;26.89;55.06;99927.66;5024312;28;20071;-52
2021/06/21 05:12:32;;;;;;;10.50;3.60;;;28.50;90.50;;;27.10;54.75;99929.28;5023589;28;20500;-53
2021/06/21 05:14:58;;;;;;;10.40;4.18;;;28.80;89.90;;;27.02;54.83;99924.47;5024036;28;20056;-56
2021/06/21 05:17:24;;;;;;;10.70;3.47;;;29.10;87.10;;;26.88;54.82;99931.38;5023749;28;20034;-55
2021/06/21 05:19:50;;;;;;;6.75;3.15;;;28.90;87.00;;;26.94;54.81;99930.34;5023957;28;20040;-53
2021/06/21 05:22:16;;;;;;;15.75;4.40;;;28.90;86.50;;;26.90;55.16;99929.25;5023754;28;20484;-56
2021/06/21 05:24:42;;;;;;;7.80;3.83;;;28.90;86.90;;;26.87;55.39;99930.59;5026211;28;20200;-56
2021/06/21 05:27:08;;;;;;;11.23;4.05;;;29.10;86.00;;;27.05;55.11;99931.97;5027066;28;20417;-54
2021/06/21 05:29:34;;;;;;;8.18;4.20;;;29.10;86.00;;;27.07;54.83;99925.28;5026794;28;20037;-49
2021/06/21 05:32:01;;;;;;;10.90;4.00;;;29.40;84.80;;;26.76;55.96;99924.41;5027767;28;20036;-50
2021/06/21 05:34:28;;;;;;;12.77;5.28;;;29.10;84.90;;;26.88;55.31;99920.69;5021771;28;20037;-53
2021/06/21 05:36:55;;;;;;;11.20;4.10;;;29.30;84.30;;;26.80;55.52;99922.00;5024190;28;20068;-56
2021/06/21 05:39:21;;;;;;;6.90;3.78;;;29.10;84.20;;;27.30;54.04;99917.81;5090926;28;20041;-59
2021/06/21 05:41:47;;;;;;;3.83;3.40;;;29.40;83.50;;;27.79;52.81;99928.75;5026730;28;20108;-57
2021/06/21 05:44:13;;;;;;;5.70;3.53;;;29.70;82.70;;;27.81;52.20;99923.13;5025590;28;20492;-59
2021/06/21 05:46:39;;;;;;;11.27;4.13;;;30.10;80.10;;;28.17;51.62;99931.88;5025910;28;20026;-55
2021/06/21 05:49:05;;;;;;;14.05;3.70;;;30.40;78.50;;;28.46;50.61;99930.16;5026573;28;20026;-55
2021/06/21 05:51:31;;;;;;;4.72;3.17;;;30.70;77.10;;;28.29;50.62;99935.88;5025756;28;20043;-57
2021/06/21 05:53:57;;;;;;;9.50;3.00;;;30.80;75.20;;;28.14;50.77;99938.56;5094218;28;20148;-57
2021/06/21 05:56:23;;;;;;;4.22;2.75;;;30.70;74.20;;;27.75;52.14;99943.75;5026851;28;20030;-60
2021/06/21 05:58:49;;;;;;;10.82;3.00;;;30.40;75.20;;;28.47;50.10;99936.31;5094646;28;20050;-54
2021/06/21 06:01:15;;;;;;;7.82;3.00;;;30.90;74.00;;;29.24;48.52;99943.66;5027070;28;20344;-57
2021/06/21 06:03:41;;;;;;;6.18;3.38;;;31.70;71.40;;;29.04;48.93;99951.84;5026518;28;20086;-52
2021/06/21 06:06:08;;;;;;;9.45;3.40;;;31.70;71.00;;;29.06;48.77;99936.28;5026786;27;20510;-55
2021/06/21 06:08:34;;;;;;;7.60;2.90;;;31.50;71.30;;;29.62;47.85;99938.53;5094969;28;20038;-54
2021/06/21 06:11:00;;;;;;;9.30;3.22;;;32.00;70.20;;;29.89;46.88;99944.13;5026305;28;20090;-58
2021/06/21 06:13:27;;;;;;;12.35;3.08;;;32.30;69.10;;;29.70;47.56;99946.75;5094395;28;20041;-58
2021/06/21 06:15:53;;;;;;;6.25;3.10;;;32.60;67.90;;;30.61;46.21;99930.72;5026114;28;20117;-57
2021/06/21 06:18:20;;;;;;;11.32;2.75;;;33.30;66.60;;;31.09;44.52;99934.03;5026346;28;20135;-56
2021/06/21 06:20:46;;;;;;;8.65;3.05;;;33.80;65.00;;;30.82;45.10;99944.66;5093922;28;20065;-52
2021/06/21 06:23:12;;;;;;;11.20;4.00;;;33.70;64.10;;;30.76;45.59;99937.75;5026184;28;20037;-52
2021/06/21 06:25:38;;;;;;;5.75;3.03;;;33.70;64.10;;;30.31;46.07;99947.97;5025886;28;20029;-59
2021/06/21 06:28:05;;;;;;;7.30;3.33;;;33.20;65.00;;;29.67;47.68;99943.84;5025899;28;20102;-56
2021/06/21 06:30:32;;;;;;;4.30;2.63;;;32.50;65.50;;;29.44;48.62;99948.06;5026219;28;20030;-56
2021/06/21 06:32:58;;;;;;;7.32;3.05;;;31.90;67.00;;;29.68;47.29;99950.81;5025862;28;20033;-57
2021/06/21 06:35:24;;;;;;;9.32;2.92;;;31.90;67.20;;;30.19;46.58;99944.94;5025810;28;20045;-56
2021/06/21 06:37:50;;;;;;;8.90;2.60;;;32.70;65.50;;;31.30;44.33;99946.09;5025998;28;20146;-54
2021/06/21 06:40:18;;;;;;;12.40;2.60;;;33.70;63.70;;;31.35;43.67;99945.19;5026333;28;20553;-53
2021/06/21 06:42:45;;;;;;;11.55;3.53;;;34.50;61.00;;;32.48;41.44;99944.75;5025914;28;20053;-55
2021/06/21 06:45:13;;;;;;;13.77;2.58;;;35.30;59.60;;;32.39;41.42;99939.25;5093192;28;20044;-56
2021/06/21 06:47:39;;;;;;;6.40;2.72;;;35.30;59.30;;;32.95;40.67;99938.84;5025965;28;20433;-57
2021/06/21 06:50:07;;;;;;;12.77;2.85;;;35.90;58.80;;;32.41;41.15;99931.66;5025994;28;20097;-58
2021/06/21 06:52:33;;;;;;;5.13;2.22;;;35.70;57.80;;;32.64;40.87;99932.50;5025927;28;20078;-58
2021/06/21 06:57:38;;;;;;;8.85;2.55;;;35.50;57.30;;;32.23;41.45;99927.19;5025613;28;20044;-53
2021/06/21 07:00:07;;;;;;;8.77;2.20;;;35.50;56.90;;;32.76;40.00;99923.91;5025782;28;20120;-50
2021/06/21 07:02:33;;;;;;;6.90;3.28;;;35.90;56.10;;;33.07;40.06;99921.31;5025352;28;20487;-56
2021/06/21 07:05:02;;;;;;;6.22;2.33;;;36.20;55.50;;;33.35;39.19;99930.88;5025209;28;20083;-51
2021/06/21 07:07:28;;;;;;;13.32;3.10;;;36.50;54.90;;;32.22;40.38;99926.38;5025468;28;20168;-52
2021/06/21 07:09:54;;;;;;;12.70;3.30;;;35.70;55.10;;;31.63;41.66;99929.94;5025480;28;20405;-53
2021/06/21 07:12:20;;;;;;;9.77;2.60;;;34.00;58.50;;;31.41;42.47;99927.06;5025539;28;20042;-54
2021/06/21 07:14:46;;;;;;;12.80;3.95;;;32.90;61.10;;;31.28;43.59;99929.44;5022541;28;20388;-56
2021/06/21 07:17:12;;;;;;;14.18;4.03;;;32.40;63.10;;;31.19;43.20;99928.53;5019869;28;20037;-50
2021/06/21 07:19:38;;;;;;;15.48;3.58;;;32.20;63.60;;;30.89;44.01;99928.97;5022202;28;20034;-54
2021/06/21 07:22:05;;;;;;;10.73;2.95;;;32.10;64.00;;;30.86;44.42;99926.84;5021632;28;20045;-52
2021/06/21 07:24:31;;;;;;;10.00;2.53;;;32.00;64.30;;;31.01;44.26;99918.56;5022026;28;20033;-54
2021/06/21 07:26:57;;;;;;;7.90;2.83;;;32.10;64.40;;;31.09;43.43;99920.59;5025198;28;20423;-55
2021/06/21 07:29:23;;;;;;;15.52;2.78;;;32.10;64.10;;;30.79;44.15;99918.34;5025041;28;20238;-52
2021/06/21 07:31:49;;;;;;;10.35;4.13;;;31.80;64.50;;;31.03;43.60;99917.16;5103762;27;20222;-54
2021/06/21 07:34:15;;;;;;;13.88;3.78;;;31.90;64.20;;;31.01;43.43;99910.47;5023329;28;20128;-54
2021/06/21 07:36:41;;;;;;;11.70;3.20;;;31.90;64.50;;;31.40;42.99;99915.50;5024361;28;20086;-51
2021/06/21 07:39:08;;;;;;;8.05;2.92;;;32.20;64.90;;;31.87;42.58;99916.31;5025582;28;20033;-53
2021/06/21 07:41:34;;;;;;;11.20;2.67;;;32.50;64.60;;;32.26;42.14;99916.59;5018507;28;20041;-50
2021/06/21 07:44:01;;;;;;;9.93;2.60;;;33.00;64.30;;;32.48;41.45;99917.78;5021959;28;20067;-53
2021/06/21 07:46:27;;;;;;;12.90;3.80;;;33.30;63.40;;;32.64;41.07;99911.72;5020129;28;20044;-48
2021/06/21 07:48:53;;;;;;;8.73;2.90;;;33.60;62.40;;;32.49;41.17;99917.47;5022215;28;20038;-55
2021/06/21 07:51:20;;;;;;;22.45;4.30;;;33.40;62.40;;;32.23;41.51;99917.22;5024456;28;20033;-56
2021/06/21 07:53:50;;;;;;;9.85;2.88;;;33.20;62.10;;;32.12;41.58;99929.28;5022475;28;20029;-52
2021/06/21 07:56:17;;;;;;;7.90;2.90;;;32.90;63.10;;;32.38;42.01;99916.09;5101130;27;20048;-52
2021/06/21 07:58:43;;;;;;;11.70;2.38;;;33.10;63.50;;;32.46;41.37;99920.78;5092322;28;20514;-56
2021/06/21 08:01:14;;;;;;;13.98;2.58;;;33.20;62.50;;;32.12;41.26;99917.72;5022157;28;20771;-57
2021/06/21 08:03:44;;;;;;;8.23;2.15;;;32.80;62.80;;;32.49;41.32;99924.78;5083889;28;20136;-53
2021/06/21 08:06:11;;;;;;;11.43;2.60;;;33.10;63.00;;;32.52;40.26;99924.97;5020307;28;20125;-52
2021/06/21 08:08:42;;;;;;;11.68;2.05;;;33.30;61.70;;;32.60;39.53;99935.03;5020244;28;20037;-51
2021/06/21 08:11:11;;;;;;;3.28;1.77;;;33.30;61.10;;;32.52;38.89;99929.56;5024539;28;20061;-54
2021/06/21 08:13:37;;;;;;;10.65;1.98;;;33.30;59.60;;;32.48;37.46;99939.34;5025027;28;20026;-55
2021/06/21 08:16:04;;;;;;;10.38;2.00;;;33.20;58.10;;;32.59;36.90;99930.75;5024414;28;20090;-54
2021/06/21 08:18:30;;;;;;;11.25;2.25;;;33.10;58.60;;;32.67;37.09;99938.09;5018167;28;20113;-53
2021/06/21 08:20:56;;;;;;;12.07;2.55;;;33.20;57.90;;;32.85;37.96;99932.88;5022593;28;20040;-56
2021/06/21 08:23:23;;;;;;;9.27;1.67;;;33.30;59.00;;;32.83;37.27;99935.88;5021580;28;20042;-57
2021/06/21 08:25:49;;;;;;;14.85;2.17;;;33.30;58.00;;;32.76;37.38;99940.09;5073779;28;20037;-56
2021/06/21 08:28:15;;;;;;;17.85;2.47;;;33.30;58.50;;;32.80;37.12;99935.69;5023818;28;20037;-55
2021/06/21 08:30:42;;;;;;;13.38;2.45;;;33.30;58.30;;;32.90;37.15;99938.97;5101931;28;20449;-56
2021/06/21 08:33:09;;;;;;;15.32;2.75;;;33.40;58.20;;;33.07;37.10;99941.00;5022883;28;20072;-54
2021/06/21 08:35:36;;;;;;;20.42;2.92;;;33.60;57.90;;;33.44;36.65;99941.75;5022875;28;20045;-58
2021/06/21 08:38:04;;;;;;;9.65;2.38;;;33.80;58.30;;;33.14;36.76;99935.94;5107364;28;20046;-56
2021/06/21 08:40:33;;;;;;;14.45;2.00;;;33.80;57.30;;;33.20;36.56;99934.72;5090975;28;20080;-57
2021/06/21 08:43:01;;;;;;;17.73;2.75;;;33.80;57.30;;;33.30;36.68;99941.81;5091509;28;20042;-55
2021/06/21 08:45:30;;;;;;;12.50;2.67;;;33.90;57.20;;;33.54;36.83;99947.69;5023516;28;20025;-53
2021/06/21 08:47:57;;;;;;;15.75;3.03;;;34.10;57.20;;;33.62;36.32;99946.09;5020420;28;20145;-55
2021/06/21 08:50:24;;;;;;;10.73;2.65;;;34.20;56.80;;;33.80;36.72;99942.44;5019409;28;20053;-54
2021/06/21 08:52:51;;;;;;;21.67;3.00;;;34.30;57.30;;;33.43;36.60;99940.94;5020275;28;20026;-55
2021/06/21 08:55:17;;;;;;;11.02;2.65;;;34.20;56.80;;;33.61;36.18;99950.72;5024934;28;20030;-49
2021/06/21 08:57:47;;;;;;;11.48;2.38;;;34.20;57.20;;;33.88;35.50;99946.28;5023338;28;20141;-57
2021/06/21 09:00:17;;;;;;;20.25;2.97;;;34.20;56.60;;;34.11;35.07;99946.97;5026252;28;20110;-57
2021/06/21 09:02:43;;;;;;;10.82;2.78;;;34.40;56.00;;;33.48;35.97;99951.63;5022457;28;20488;-52
2021/06/21 09:05:12;;;;;;;10.75;2.08;;;34.20;56.20;;;33.60;35.87;99946.41;5026727;28;20065;-56
2021/06/21 09:07:38;;;;;;;15.57;2.70;;;34.10;56.30;;;33.78;35.53;99943.81;5026702;28;20641;-54
2021/06/21 09:10:21;;;;;;;9.35;2.40;;;34.20;56.10;;;34.04;34.50;99952.03;5025555;28;20692;-56
2021/06/21 09:12:47;;;;;;;17.40;3.00;;;34.40;55.50;;;33.98;34.94;99956.00;5092322;28;20033;-53
2021/06/21 09:15:13;;;;;;;16.40;2.92;;;34.50;55.40;;;34.06;34.71;99950.63;5023484;28;20029;-54
2021/06/21 09:17:39;;;;;;;17.95;2.53;;;34.50;55.30;;;34.35;34.69;99955.50;5022307;28;20404;-55
2021/06/21 09:20:10;;;;;;;12.85;2.65;;;34.70;55.30;;;34.18;34.85;99950.81;5025265;28;20144;-50
2021/06/21 09:22:53;;;;;;;12.98;2.75;;;34.80;55.00;;;34.11;34.75;99942.38;5028074;28;20057;-55
2021/06/21 09:25:19;;;;;;;13.15;2.38;;;34.60;55.90;;;34.15;34.70;99943.34;5104226;27;20049;-56
2021/06/21 09:28:05;;;;;;;23.55;3.97;;;34.60;55.00;;;33.53;34.92;99942.59;5026638;28;20048;-55
2021/06/21 09:30:47;;;;;;;21.05;3.33;;;34.20;54.60;;;33.64;35.55;99943.91;5027194;27;20037;-59
2021/06/21 09:33:29;;;;;;;17.50;3.25;;;34.10;55.70;;;33.84;34.89;99940.69;5082584;28;20128;-49
2021/06/21 09:35:55;;;;;;;16.33;3.47;;;34.10;55.10;;;33.65;34.64;99937.38;5027609;28;20090;-49
2021/06/21 09:38:21;;;;;;;16.05;3.60;;;34.20;54.70;;;33.53;35.43;99943.38;5027621;28;20037;-53
2021/06/21 09:40:54;;;;;;;22.58;3.25;;;33.90;55.40;;;33.84;34.95;99938.00;5027438;28;20044;-55
2021/06/21 09:43:26;;;;;;;18.40;3.13;;;34.10;55.10;;;34.05;33.99;99938.22;5109482;28;20048;-58
2021/06/21 09:46:18;;;;;;;14.40;2.90;;;34.40;55.00;;;34.09;34.43;99935.69;5109444;28;20031;-50
2021/06/21 09:48:52;;;;;;;26.85;3.42;;;34.50;54.90;;;34.12;34.67;99937.75;5092675;28;20052;-52
2021/06/21 09:51:33;;;;;;;15.27;2.95;;;34.50;54.80;;;34.03;34.48;99936.97;5110757;28;20504;-48
2021/06/21 09:54:14;;;;;;;22.73;3.92;;;34.40;54.80;;;34.23;34.70;99945.25;5106109;28;20156;-49
2021/06/21 09:56:50;;;;;;;15.77;3.00;;;34.50;55.30;;;34.26;34.40;99943.84;5090424;28;20032;-52
2021/06/21 09:59:23;;;;;;;23.38;3.53;;;34.50;55.10;;;34.37;34.47;99945.19;5090421;28;20054;-43
2021/06/21 10:02:09;;;;;;;29.13;4.53;;;34.70;55.00;;;34.38;34.30;99946.78;5089046;28;20044;-60
2021/06/21 10:04:37;;;;;;;21.15;3.50;;;34.60;55.00;;;34.32;34.10;99953.44;5088693;28;20036;-48
2021/06/21 10:07:04;;;;;;;22.90;2.75;;;34.60;54.50;;;34.16;34.75;99952.25;5090275;28;20035;-48
2021/06/21 10:09:30;;;;;;;25.33;4.10;;;34.50;55.00;;;34.31;34.36;99957.25;5089436;28;20472;-46
2021/06/21 10:11:57;;;;;;;18.83;2.80;;;34.60;54.90;;;34.13;34.87;99963.69;5090001;28;20028;-50
2021/06/21 10:14:27;;;;;;;28.35;3.00;;;34.50;55.00;;;34.10;35.11;99958.91;5090144;28;20060;-54
2021/06/21 10:16:55;;;;;;;20.95;3.45;;;34.40;55.40;;;34.21;35.23;99965.63;5088695;28;20032;-52
2021/06/21 10:19:22;;;;;;;24.85;3.70;;;34.50;55.60;;;34.49;35.01;99958.09;5089801;28;20031;-52
2021/06/21 10:21:55;;;;;;;24.52;2.85;;;34.70;55.60;;;34.35;35.67;99962.81;5090310;28;20032;-51
2021/06/21 10:24:26;;;;;;;25.70;3.33;;;34.60;56.20;;;34.55;35.72;99954.09;5088579;28;20054;-51
2021/06/21 10:26:52;;;;;;;20.65;2.70;;;34.80;56.70;;;34.32;36.40;99958.84;5088184;28;20420;-56